sensor_id;sensor_type;location;lat;lon;timestamp;pressure;altitude;pressure_sealevel;temperature;humidity
56928;BME280;60850;52.502;13.426;2024-01-16T00:02:06;99599.81;;;-0.28;100.00
56928;BME280;60850;52.502;13.426;2024-01-16T00:04:36;99608.53;;;-0.26;100.00
56928;BME280;60850;52.502;13.426;2024-01-16T00:07:04;99604.16;;;-0.25;100.00
56928;BME280;60850;52.502;13.426;2024-01-16T00:09:32;99608.50;;;-0.23;100.00
56928;BME280;60850;52.502;13.426;2024-01-16T00:12:00;99608.53;;;-0.32;100.00
56928;BME280;60850;52.502;13.426;2024-01-16T00:14:27;99613.75;;;-0.21;100.00
56928;BME280;60850;52.502;13.426;2024-01-16T00:16:54;99608.50;;;-0.23;100.00
56928;BME280;60850;52.502;13.426;2024-01-16T00:19:21;99605.03;;;-0.26;100.00
56928;BME280;60850;52.502;13.426;2024-01-16T00:21:48;99607.66;;;-0.30;100.00
56928;BME280;60850;52.502;13.426;2024-01-16T00:24:16;99613.78;;;-0.26;100.00
56928;BME280;60850;52.502;13.426;2024-01-16T00:26:43;99621.59;;;-0.29;100.00
56928;BME280;60850;52.502;13.426;2024-01-16T00:29:11;99621.63;;;-0.28;100.00
56928;BME280;60850;52.502;13.426;2024-01-16T00:31:39;99625.09;;;-0.30;100.00
56928;BME280;60850;52.502;13.426;2024-01-16T00:34:06;99629.47;;;-0.29;100.00
56928;BME280;60850;52.502;13.426;2024-01-16T00:36:33;99624.22;;;-0.29;100.00
56928;BME280;60850;52.502;13.426;2024-01-16T00:39:00;99634.72;;;-0.26;100.00
56928;BME280;60850;52.502;13.426;2024-01-16T00:41:30;99639.94;;;-0.24;100.00
56928;BME280;60850;52.502;13.426;2024-01-16T00:43:56;99637.34;;;-0.28;100.00
56928;BME280;60850;52.502;13.426;2024-01-16T00:46:23;99651.28;;;-0.36;100.00
56928;BME280;60850;52.502;13.426;2024-01-16T00:48:50;99664.41;;;-0.42;100.00
56928;BME280;60850;52.502;13.426;2024-01-16T00:51:17;99663.47;;;-0.64;100.00
56928;BME280;60850;52.502;13.426;2024-01-16T00:53:44;99669.56;;;-0.91;100.00
56928;BME280;60850;52.502;13.426;2024-01-16T00:56:11;99684.34;;;-0.99;100.00
56928;BME280;60850;52.502;13.426;2024-01-16T00:58:40;99686.06;;;-1.11;100.00
56928;BME280;60850;52.502;13.426;2024-01-16T01:01:07;99700.00;;;-1.08;100.00
56928;BME280;60850;52.502;13.426;2024-01-16T01:03:34;99706.91;;;-1.32;100.00
56928;BME280;60850;52.502;13.426;2024-01-16T01:06:01;99700.72;;;-1.42;100.00
56928;BME280;60850;52.502;13.426;2024-01-16T01:08:28;99701.56;;;-1.50;100.00
56928;BME280;60850;52.502;13.426;2024-01-16T01:10:55;99705.97;;;-1.48;100.00
56928;BME280;60850;52.502;13.426;2024-01-16T01:13:22;99707.50;;;-1.77;100.00
56928;BME280;60850;52.502;13.426;2024-01-16T01:15:52;99717.03;;;-1.87;100.00
56928;BME280;60850;52.502;13.426;2024-01-16T01:18:19;99735.22;;;-1.98;100.00
56928;BME280;60850;52.502;13.426;2024-01-16T01:20:46;99723.16;;;-1.79;100.00
56928;BME280;60850;52.502;13.426;2024-01-16T01:23:13;99720.47;;;-1.91;100.00
56928;BME280;60850;52.502;13.426;2024-01-16T01:25:40;99726.66;;;-1.83;100.00
56928;BME280;60850;52.502;13.426;2024-01-16T01:28:07;99726.66;;;-1.83;100.00
56928;BME280;60850;52.502;13.426;2024-01-16T01:30:34;99729.28;;;-1.78;100.00
56928;BME280;60850;52.502;13.426;2024-01-16T01:33:02;99725.78;;;-1.77;100.00
56928;BME280;60850;52.502;13.426;2024-01-16T01:35:29;99733.66;;;-1.71;100.00
56928;BME280;60850;52.502;13.426;2024-01-16T01:37:56;99727.47;;;-1.84;100.00
56928;BME280;60850;52.502;13.426;2024-01-16T01:40:23;99737.09;;;-1.77;100.00
56928;BME280;60850;52.502;13.426;2024-01-16T01:42:50;99721.50;;;-1.69;100.00
56928;BME280;60850;52.502;13.426;2024-01-16T01:45:17;99721.41;;;-1.81;100.00
56928;BME280;60850;52.502;13.426;2024-01-16T01:47:44;99720.59;;;-1.70;100.00
56928;BME280;60850;52.502;13.426;2024-01-16T01:50:13;99732.75;;;-1.78;100.00
56928;BME280;60850;52.502;13.426;2024-01-16T01:52:41;99731.81;;;-1.87;100.00
56928;BME280;60850;52.502;13.426;2024-01-16T01:55:10;99739.66;;;-1.86;100.00
56928;BME280;60850;52.502;13.426;2024-01-16T01:57:38;99737.09;;;-1.83;100.00
56928;BME280;60850;52.502;13.426;2024-01-16T02:00:06;99740.53;;;-1.87;100.00
56928;BME280;60850;52.502;13.426;2024-01-16T02:02:34;99744.84;;;-1.90;100.00
56928;BME280;60850;52.502;13.426;2024-01-16T02:05:01;99746.63;;;-1.88;100.00
56928;BME280;60850;52.502;13.426;2024-01-16T02:07:31;99749.19;;;-1.96;100.00
56928;BME280;60850;52.502;13.426;2024-01-16T02:09:59;99744.84;;;-1.95;100.00
56928;BME280;60850;52.502;13.426;2024-01-16T02:12:27;99743.97;;;-1.92;100.00
56928;BME280;60850;52.502;13.426;2024-01-16T02:14:54;99753.53;;;-1.91;100.00
56928;BME280;60850;52.502;13.426;2024-01-16T02:17:20;99759.69;;;-1.86;100.00
56928;BME280;60850;52.502;13.426;2024-01-16T02:19:48;99761.47;;;-1.79;100.00
56928;BME280;60850;52.502;13.426;2024-01-16T02:22:17;99764.97;;;-1.77;100.00
56928;BME280;60850;52.502;13.426;2024-01-16T02:24:47;99765.78;;;-1.89;100.00
56928;BME280;60850;52.502;13.426;2024-01-16T02:27:14;99781.47;;;-1.86;100.00
56928;BME280;60850;52.502;13.426;2024-01-16T02:29:41;99790.28;;;-1.75;100.00
56928;BME280;60850;52.502;13.426;2024-01-16T02:32:10;99782.44;;;-1.73;100.00
56928;BME280;60850;52.502;13.426;2024-01-16T02:34:38;99781.50;;;-1.80;100.00
56928;BME280;60850;52.502;13.426;2024-01-16T02:37:05;99786.75;;;-1.78;100.00
56928;BME280;60850;52.502;13.426;2024-01-16T02:39:31;99785.97;;;-1.67;100.00
56928;BME280;60850;52.502;13.426;2024-01-16T02:41:59;99788.63;;;-1.57;100.00
56928;BME280;60850;52.502;13.426;2024-01-16T02:44:26;99795.53;;;-1.69;100.00
56928;BME280;60850;52.502;13.426;2024-01-16T02:46:53;99795.50;;;-1.72;100.00
56928;BME280;60850;52.502;13.426;2024-01-16T02:49:20;99796.38;;;-1.70;100.00
56928;BME280;60850;52.502;13.426;2024-01-16T02:51:47;99801.59;;;-1.71;100.00
56928;BME280;60850;52.502;13.426;2024-01-16T02:54:14;99819.78;;;-1.85;100.00
56928;BME280;60850;52.502;13.426;2024-01-16T02:56:41;99830.03;;;-2.06;100.00
56928;BME280;60850;52.502;13.426;2024-01-16T02:59:10;99824.69;;;-2.18;100.00
56928;BME280;60850;52.502;13.426;2024-01-16T03:01:37;99834.28;;;-2.16;100.00
56928;BME280;60850;52.502;13.426;2024-01-16T03:04:04;99826.47;;;-2.17;100.00
56928;BME280;60850;52.502;13.426;2024-01-16T03:06:31;99834.22;;;-2.24;100.00
56928;BME280;60850;52.502;13.426;2024-01-16T03:08:58;99835.03;;;-2.28;100.00
56928;BME280;60850;52.502;13.426;2024-01-16T03:11:24;99841.97;;;-2.31;100.00
56928;BME280;60850;52.502;13.426;2024-01-16T03:13:52;99845.38;;;-2.37;100.00
56928;BME280;60850;52.502;13.426;2024-01-16T03:16:20;99840.19;;;-2.34;100.00
56928;BME280;60850;52.502;13.426;2024-01-16T03:18:47;99845.41;;;-2.34;100.00
56928;BME280;60850;52.502;13.426;2024-01-16T03:21:14;99847.16;;;-2.33;100.00
56928;BME280;60850;52.502;13.426;2024-01-16T03:23:41;99850.69;;;-2.31;100.00
56928;BME280;60850;52.502;13.426;2024-01-16T03:26:12;99864.53;;;-2.36;100.00
56928;BME280;60850;52.502;13.426;2024-01-16T03:28:39;99871.50;;;-2.35;100.00
56928;BME280;60850;52.502;13.426;2024-01-16T03:31:06;99871.72;;;-2.15;100.00
56928;BME280;60850;52.502;13.426;2024-01-16T03:33:34;99876.25;;;-1.98;100.00
56928;BME280;60850;52.502;13.426;2024-01-16T03:36:07;99879.84;;;-1.88;100.00
56928;BME280;60850;52.502;13.426;2024-01-16T03:38:35;99891.16;;;-1.87;100.00
56928;BME280;60850;52.502;13.426;2024-01-16T03:41:02;99889.50;;;-1.78;100.00
56928;BME280;60850;52.502;13.426;2024-01-16T03:43:32;99893.09;;;-1.67;100.00
56928;BME280;60850;52.502;13.426;2024-01-16T03:45:59;99896.66;;;-1.57;100.00
56928;BME280;60850;52.502;13.426;2024-01-16T03:48:26;99909.72;;;-1.61;100.00
56928;BME280;60850;52.502;13.426;2024-01-16T03:50:55;99918.44;;;-1.59;100.00
56928;BME280;60850;52.502;13.426;2024-01-16T03:53:22;99924.53;;;-1.57;100.00
56928;BME280;60850;52.502;13.426;2024-01-16T03:55:49;99920.25;;;-1.52;100.00
56928;BME280;60850;52.502;13.426;2024-01-16T03:58:16;99930.75;;;-1.46;100.00
56928;BME280;60850;52.502;13.426;2024-01-16T04:00:43;99929.88;;;-1.45;100.00
56928;BME280;60850;52.502;13.426;2024-01-16T04:03:11;99938.59;;;-1.43;100.00
56928;BME280;60850;52.502;13.426;2024-01-16T04:05:38;99923.78;;;-1.46;100.00
56928;BME280;60850;52.502;13.426;2024-01-16T04:08:07;99923.84;;;-1.38;100.00
56928;BME280;60850;52.502;13.426;2024-01-16T04:10:34;99912.56;;;-1.32;100.00
56928;BME280;60850;52.502;13.426;2024-01-16T04:13:01;99919.50;;;-1.36;100.00
56928;BME280;60850;52.502;13.426;2024-01-16T04:15:29;99914.09;;;-1.57;100.00
56928;BME280;60850;52.502;13.426;2024-01-16T04:17:56;99931.44;;;-1.62;100.00
56928;BME280;60850;52.502;13.426;2024-01-16T04:20:23;99935.06;;;-1.48;100.00
56928;BME280;60850;52.502;13.426;2024-01-16T04:22:50;99942.03;;;-1.50;100.00
56928;BME280;60850;52.502;13.426;2024-01-16T04:25:18;99945.56;;;-1.45;100.00
56928;BME280;60850;52.502;13.426;2024-01-16T04:27:45;99946.44;;;-1.45;100.00
56928;BME280;60850;52.502;13.426;2024-01-16T04:30:12;99939.53;;;-1.40;100.00
56928;BME280;60850;52.502;13.426;2024-01-16T04:32:40;99946.50;;;-1.37;100.00
56928;BME280;60850;52.502;13.426;2024-01-16T04:35:07;99946.50;;;-1.39;100.00
56928;BME280;60850;52.502;13.426;2024-01-16T04:37:34;99950.94;;;-1.30;100.00
56928;BME280;60850;52.502;13.426;2024-01-16T04:40:01;99948.38;;;-1.22;100.00
56928;BME280;60850;52.502;13.426;2024-01-16T04:42:30;99948.38;;;-1.21;100.00
56928;BME280;60850;52.502;13.426;2024-01-16T04:44:56;99942.28;;;-1.23;100.00
56928;BME280;60850;52.502;13.426;2024-01-16T04:47:24;99946.56;;;-1.29;100.00
56928;BME280;60850;52.502;13.426;2024-01-16T04:49:51;99950.06;;;-1.30;100.00
56928;BME280;60850;52.502;13.426;2024-01-16T04:52:18;99950.84;;;-1.39;100.00
56928;BME280;60850;52.502;13.426;2024-01-16T04:54:44;99951.75;;;-1.34;100.00
56928;BME280;60850;52.502;13.426;2024-01-16T04:57:12;99955.16;;;-1.43;100.00
56928;BME280;60850;52.502;13.426;2024-01-16T04:59:40;99958.59;;;-1.48;100.00
56928;BME280;60850;52.502;13.426;2024-01-16T05:02:07;99953.34;;;-1.51;100.00
56928;BME280;60850;52.502;13.426;2024-01-16T05:04:36;99950.78;;;-1.45;100.00
56928;BME280;60850;52.502;13.426;2024-01-16T05:07:04;99952.59;;;-1.38;100.00
56928;BME280;60850;52.502;13.426;2024-01-16T05:09:30;99958.63;;;-1.45;100.00
56928;BME280;60850;52.502;13.426;2024-01-16T05:11:58;99959.47;;;-1.49;100.00
56928;BME280;60850;52.502;13.426;2024-01-16T05:14:24;99965.50;;;-1.56;100.00
56928;BME280;60850;52.502;13.426;2024-01-16T05:16:53;99962.94;;;-1.53;100.00
56928;BME280;60850;52.502;13.426;2024-01-16T05:19:20;99973.47;;;-1.43;100.00
56928;BME280;60850;52.502;13.426;2024-01-16T05:21:47;99976.09;;;-1.41;100.00
56928;BME280;60850;52.502;13.426;2024-01-16T05:24:14;99975.06;;;-1.55;100.00
56928;BME280;60850;52.502;13.426;2024-01-16T05:26:41;99969.09;;;-1.45;100.00
56928;BME280;60850;52.502;13.426;2024-01-16T05:29:08;99970.78;;;-1.50;100.00
56928;BME280;60850;52.502;13.426;2024-01-16T05:31:39;99972.56;;;-1.48;100.00
56928;BME280;60850;52.502;13.426;2024-01-16T05:34:08;99976.09;;;-1.43;100.00
56928;BME280;60850;52.502;13.426;2024-01-16T05:36:35;99976.81;;;-1.57;100.00
56928;BME280;60850;52.502;13.426;2024-01-16T05:39:02;99989.94;;;-1.54;100.00
56928;BME280;60850;52.502;13.426;2024-01-16T05:41:32;99988.19;;;-1.51;100.00
56928;BME280;60850;52.502;13.426;2024-01-16T05:43:59;99992.63;;;-1.42;100.00
56928;BME280;60850;52.502;13.426;2024-01-16T05:46:27;99986.47;;;-1.50;100.00
56928;BME280;60850;52.502;13.426;2024-01-16T05:48:54;99995.13;;;-1.56;100.00
56928;BME280;60850;52.502;13.426;2024-01-16T05:51:22;100000.31;;;-1.59;100.00
56928;BME280;60850;52.502;13.426;2024-01-16T05:53:49;100008.16;;;-1.60;100.00
56928;BME280;60850;52.502;13.426;2024-01-16T05:56:16;100000.34;;;-1.57;100.00
56928;BME280;60850;52.502;13.426;2024-01-16T05:58:43;100003.75;;;-1.63;100.00
56928;BME280;60850;52.502;13.426;2024-01-16T06:01:10;100015.06;;;-1.66;100.00
56928;BME280;60850;52.502;13.426;2024-01-16T06:03:38;100013.31;;;-1.65;100.00
56928;BME280;60850;52.502;13.426;2024-01-16T06:06:06;100018.59;;;-1.62;100.00
56928;BME280;60850;52.502;13.426;2024-01-16T06:08:34;100026.31;;;-1.71;100.00
56928;BME280;60850;52.502;13.426;2024-01-16T06:11:01;100030.59;;;-1.76;100.00
56928;BME280;60850;52.502;13.426;2024-01-16T06:13:28;100031.66;;;-1.62;100.00
56928;BME280;60850;52.502;13.426;2024-01-16T06:15:57;100034.19;;;-1.68;100.00
56928;BME280;60850;52.502;13.426;2024-01-16T06:18:24;100034.13;;;-1.74;100.00
56928;BME280;60850;52.502;13.426;2024-01-16T06:20:51;100034.13;;;-1.76;100.00
56928;BME280;60850;52.502;13.426;2024-01-16T06:23:18;100034.91;;;-1.83;100.00
56928;BME280;60850;52.502;13.426;2024-01-16T06:25:46;100046.31;;;-1.75;100.00
56928;BME280;60850;52.502;13.426;2024-01-16T06:28:14;100041.84;;;-1.83;100.00
56928;BME280;60850;52.502;13.426;2024-01-16T06:30:41;100042.75;;;-1.83;100.00
56928;BME280;60850;52.502;13.426;2024-01-16T06:33:08;100047.81;;;-1.92;100.00
56928;BME280;60850;52.502;13.426;2024-01-16T06:35:35;100046.94;;;-1.94;100.00
56928;BME280;60850;52.502;13.426;2024-01-16T06:38:02;100048.69;;;-1.95;100.00
56928;BME280;60850;52.502;13.426;2024-01-16T06:40:29;100054.78;;;-1.96;100.00
56928;BME280;60850;52.502;13.426;2024-01-16T06:42:57;100057.41;;;-1.92;100.00
56928;BME280;60850;52.502;13.426;2024-01-16T06:45:24;100065.25;;;-1.92;100.00
56928;BME280;60850;52.502;13.426;2024-01-16T06:47:51;100070.19;;;-2.12;100.00
56928;BME280;60850;52.502;13.426;2024-01-16T06:50:19;100076.47;;;-1.98;100.00
56928;BME280;60850;52.502;13.426;2024-01-16T06:52:46;100085.19;;;-1.99;100.00
56928;BME280;60850;52.502;13.426;2024-01-16T06:55:13;100078.28;;;-1.96;100.00
56928;BME280;60850;52.502;13.426;2024-01-16T06:57:39;100085.34;;;-1.87;100.00
56928;BME280;60850;52.502;13.426;2024-01-16T07:00:09;100094.22;;;-1.76;100.00
56928;BME280;60850;52.502;13.426;2024-01-16T07:02:36;100099.38;;;-1.80;100.00
56928;BME280;60850;52.502;13.426;2024-01-16T07:05:04;100100.41;;;-1.68;100.00
56928;BME280;60850;52.502;13.426;2024-01-16T07:07:30;100100.44;;;-1.63;100.00
56928;BME280;60850;52.502;13.426;2024-01-16T07:09:57;100107.50;;;-1.57;100.00
56928;BME280;60850;52.502;13.426;2024-01-16T07:12:25;100109.28;;;-1.55;100.00
56928;BME280;60850;52.502;13.426;2024-01-16T07:14:52;100104.13;;;-1.47;100.00
56928;BME280;60850;52.502;13.426;2024-01-16T07:17:20;100120.69;;;-1.47;100.00
56928;BME280;60850;52.502;13.426;2024-01-16T07:19:47;100120.81;;;-1.34;100.00
56928;BME280;60850;52.502;13.426;2024-01-16T07:22:14;100126.19;;;-1.22;100.00
56928;BME280;60850;52.502;13.426;2024-01-16T07:24:41;100125.41;;;-1.17;100.00
56928;BME280;60850;52.502;13.426;2024-01-16T07:27:08;100131.50;;;-1.16;100.00
56928;BME280;60850;52.502;13.426;2024-01-16T07:29:35;100127.19;;;-1.13;100.00
56928;BME280;60850;52.502;13.426;2024-01-16T07:32:02;100139.44;;;-1.08;100.00
56928;BME280;60850;52.502;13.426;2024-01-16T07:34:30;100146.47;;;-1.04;100.00
56928;BME280;60850;52.502;13.426;2024-01-16T07:36:57;100136.09;;;-0.94;100.00
56928;BME280;60850;52.502;13.426;2024-01-16T07:39:24;100127.44;;;-0.90;100.00
56928;BME280;60850;52.502;13.426;2024-01-16T07:41:51;100131.75;;;-0.92;100.00
56928;BME280;60850;52.502;13.426;2024-01-16T07:44:18;100122.16;;;-0.93;100.00
56928;BME280;60850;52.502;13.426;2024-01-16T07:46:45;100129.16;;;-0.90;100.00
56928;BME280;60850;52.502;13.426;2024-01-16T07:49:12;100130.97;;;-0.83;100.00
56928;BME280;60850;52.502;13.426;2024-01-16T07:51:40;100131.91;;;-0.76;100.00
56928;BME280;60850;52.502;13.426;2024-01-16T07:54:09;100131.81;;;-0.87;100.00
56928;BME280;60850;52.502;13.426;2024-01-16T07:56:36;100136.22;;;-0.80;100.00
56928;BME280;60850;52.502;13.426;2024-01-16T07:59:03;100140.66;;;-0.74;100.00
56928;BME280;60850;52.502;13.426;2024-01-16T08:01:30;100136.22;;;-0.80;100.00
56928;BME280;60850;52.502;13.426;2024-01-16T08:03:58;100149.25;;;-0.88;100.00
56928;BME280;60850;52.502;13.426;2024-01-16T08:06:25;100156.22;;;-0.85;100.00
56928;BME280;60850;52.502;13.426;2024-01-16T08:08:53;100165.09;;;-0.72;100.00
56928;BME280;60850;52.502;13.426;2024-01-16T08:11:20;100166.81;;;-0.73;100.00
56928;BME280;60850;52.502;13.426;2024-01-16T08:13:47;100165.06;;;-0.77;100.00
56928;BME280;60850;52.502;13.426;2024-01-16T08:16:14;100163.41;;;-0.64;100.00
56928;BME280;60850;52.502;13.426;2024-01-16T08:18:41;100163.53;;;-0.55;100.00
56928;BME280;60850;52.502;13.426;2024-01-16T08:21:11;100165.28;;;-0.51;100.00
56928;BME280;60850;52.502;13.426;2024-01-16T08:23:39;100170.59;;;-0.43;100.00
56928;BME280;60850;52.502;13.426;2024-01-16T08:26:08;100175.81;;;-0.48;100.00
56928;BME280;60850;52.502;13.426;2024-01-16T08:28:35;100174.88;;;-0.54;100.00
56928;BME280;60850;52.502;13.426;2024-01-16T08:31:02;100171.34;;;-0.58;100.00
56928;BME280;60850;52.502;13.426;2024-01-16T08:33:29;100168.88;;;-0.41;100.00
56928;BME280;60850;52.502;13.426;2024-01-16T08:35:57;100168.91;;;-0.38;100.00
56928;BME280;60850;52.502;13.426;2024-01-16T08:38:27;100169.88;;;-0.24;100.00
56928;BME280;60850;52.502;13.426;2024-01-16T08:40:54;100176.03;;;-0.20;100.00
56928;BME280;60850;52.502;13.426;2024-01-16T08:43:22;100173.47;;;-0.10;100.00
56928;BME280;60850;52.502;13.426;2024-01-16T08:45:49;100172.66;;;-0.04;100.00
56928;BME280;60850;52.502;13.426;2024-01-16T08:48:19;100180.41;;;-0.15;100.00
56928;BME280;60850;52.502;13.426;2024-01-16T08:50:46;100185.72;;;-0.09;100.00
56928;BME280;60850;52.502;13.426;2024-01-16T08:53:13;100182.16;;;-0.20;100.00
56928;BME280;60850;52.502;13.426;2024-01-16T08:55:40;100184.78;;;-0.20;100.00
56928;BME280;60850;52.502;13.426;2024-01-16T08:58:07;100183.97;;;-0.10;100.00
56928;BME280;60850;52.502;13.426;2024-01-16T09:00:35;100179.59;;;-0.09;100.00
56928;BME280;60850;52.502;13.426;2024-01-16T09:03:04;100178.81;;;0.01;100.00
56928;BME280;60850;52.502;13.426;2024-01-16T09:05:30;100181.50;;;0.12;100.00
56928;BME280;60850;52.502;13.426;2024-01-16T09:08:00;100177.13;;;0.08;100.00
56928;BME280;60850;52.502;13.426;2024-01-16T09:10:28;100192.75;;;-0.03;100.00
56928;BME280;60850;52.502;13.426;2024-01-16T09:12:55;100190.19;;;0.03;100.00
56928;BME280;60850;52.502;13.426;2024-01-16T09:15:22;100188.47;;;0.10;100.00
56928;BME280;60850;52.502;13.426;2024-01-16T09:17:51;100189.25;;;-0.07;100.00
56928;BME280;60850;52.502;13.426;2024-01-16T09:20:17;100194.44;;;-0.10;100.00
56928;BME280;60850;52.502;13.426;2024-01-16T09:22:44;100198.84;;;-0.06;100.00
56928;BME280;60850;52.502;13.426;2024-01-16T09:25:11;100204.94;;;-0.10;100.00
56928;BME280;60850;52.502;13.426;2024-01-16T09:27:38;100202.31;;;-0.08;100.00
56928;BME280;60850;52.502;13.426;2024-01-16T09:30:06;100202.31;;;-0.08;100.00
56928;BME280;60850;52.502;13.426;2024-01-16T09:32:34;100205.84;;;-0.03;100.00
56928;BME280;60850;52.502;13.426;2024-01-16T09:35:03;100208.53;;;0.02;100.00
56928;BME280;60850;52.502;13.426;2024-01-16T09:37:32;100216.44;;;0.09;100.00
56928;BME280;60850;52.502;13.426;2024-01-16T09:40:00;100208.69;;;0.26;100.00
56928;BME280;60850;52.502;13.426;2024-01-16T09:42:27;100207.88;;;0.36;100.00
56928;BME280;60850;52.502;13.426;2024-01-16T09:44:55;100200.06;;;0.45;100.00
56928;BME280;60850;52.502;13.426;2024-01-16T09:47:23;100209.59;;;0.30;100.00
56928;BME280;60850;52.502;13.426;2024-01-16T09:49:52;100205.13;;;0.21;100.00
56928;BME280;60850;52.502;13.426;2024-01-16T09:52:20;100206.97;;;0.31;100.00
56928;BME280;60850;52.502;13.426;2024-01-16T09:54:47;100207.88;;;0.39;100.00
56928;BME280;60850;52.502;13.426;2024-01-16T09:57:15;100201.84;;;0.55;100.00
56928;BME280;60850;52.502;13.426;2024-01-16T09:59:46;100208.91;;;0.69;100.00
56928;BME280;60850;52.502;13.426;2024-01-16T10:02:14;100208.94;;;0.75;100.00
56928;BME280;60850;52.502;13.426;2024-01-16T10:04:41;100206.38;;;0.87;100.00
56928;BME280;60850;52.502;13.426;2024-01-16T10:07:10;100209.81;;;0.75;100.00
56928;BME280;60850;52.502;13.426;2024-01-16T10:09:39;100207.28;;;0.92;100.00
56928;BME280;60850;52.502;13.426;2024-01-16T10:12:07;100214.31;;;0.99;100.00
56928;BME280;60850;52.502;13.426;2024-01-16T10:14:36;100209.13;;;1.13;100.00
56928;BME280;60850;52.502;13.426;2024-01-16T10:17:04;100219.53;;;0.96;100.00
56928;BME280;60850;52.502;13.426;2024-01-16T10:19:35;100216.09;;;1.09;100.00
56928;BME280;60850;52.502;13.426;2024-01-16T10:22:05;100217.84;;;1.10;100.00
56928;BME280;60850;52.502;13.426;2024-01-16T10:24:32;100211.69;;;0.99;100.00
56928;BME280;60850;52.502;13.426;2024-01-16T10:27:04;100216.97;;;1.08;100.00
56928;BME280;60850;52.502;13.426;2024-01-16T10:29:32;100215.25;;;1.18;100.00
56928;BME280;60850;52.502;13.426;2024-01-16T10:32:00;100215.28;;;1.32;100.00
56928;BME280;60850;52.502;13.426;2024-01-16T10:34:27;100211.78;;;1.30;100.00
56928;BME280;60850;52.502;13.426;2024-01-16T10:36:58;100215.34;;;1.50;100.00
56928;BME280;60850;52.502;13.426;2024-01-16T10:39:26;100208.31;;;1.43;100.00
56928;BME280;60850;52.502;13.426;2024-01-16T10:41:57;100220.56;;;1.41;100.00
56928;BME280;60850;52.502;13.426;2024-01-16T10:44:25;100224.94;;;1.45;100.00
56928;BME280;60850;52.502;13.426;2024-01-16T10:47:09;100224.09;;;1.51;100.00
56928;BME280;60850;52.502;13.426;2024-01-16T10:49:37;100225.81;;;1.44;100.00
56928;BME280;60850;52.502;13.426;2024-01-16T10:52:08;100223.22;;;1.50;100.00
56928;BME280;60850;52.502;13.426;2024-01-16T10:54:41;100220.63;;;1.70;100.00
56928;BME280;60850;52.502;13.426;2024-01-16T10:57:11;100215.31;;;1.55;100.00
56928;BME280;60850;52.502;13.426;2024-01-16T10:59:46;100210.97;;;1.58;100.00
56928;BME280;60850;52.502;13.426;2024-01-16T11:02:16;100202.22;;;1.81;100.00
56928;BME280;60850;52.502;13.426;2024-01-16T11:04:47;100199.59;;;1.85;100.00
56928;BME280;60850;52.502;13.426;2024-01-16T11:07:16;100201.34;;;1.82;100.00
56928;BME280;60850;52.502;13.426;2024-01-16T11:09:44;100200.47;;;1.72;100.00
56928;BME280;60850;52.502;13.426;2024-01-16T11:12:11;100197.81;;;1.60;100.00
56928;BME280;60850;52.502;13.426;2024-01-16T11:14:44;100198.72;;;1.73;100.00
56928;BME280;60850;52.502;13.426;2024-01-16T11:17:13;100197.81;;;1.52;100.00
56928;BME280;60850;52.502;13.426;2024-01-16T11:19:44;100196.06;;;1.57;100.00
56928;BME280;60850;52.502;13.426;2024-01-16T11:22:12;100188.16;;;1.45;100.00
56928;BME280;60850;52.502;13.426;2024-01-16T11:24:40;100194.31;;;1.52;100.00
56928;BME280;60850;52.502;13.426;2024-01-16T11:27:07;100194.28;;;1.46;100.00
56928;BME280;60850;52.502;13.426;2024-01-16T11:29:35;100188.16;;;1.39;100.00
56928;BME280;60850;52.502;13.426;2024-01-16T11:32:07;100198.69;;;1.34;100.00
56928;BME280;60850;52.502;13.426;2024-01-16T11:34:53;100201.25;;;1.27;100.00
56928;BME280;60850;52.502;13.426;2024-01-16T11:37:27;100193.41;;;1.33;100.00
56928;BME280;60850;52.502;13.426;2024-01-16T11:40:21;100192.53;;;1.40;100.00
56928;BME280;60850;52.502;13.426;2024-01-16T11:42:50;100182.88;;;1.27;100.00
56928;BME280;60850;52.502;13.426;2024-01-16T11:45:48;100187.28;;;1.31;100.00
56928;BME280;60850;52.502;13.426;2024-01-16T11:48:18;100202.13;;;1.18;100.00
56928;BME280;60850;52.502;13.426;2024-01-16T11:50:46;100194.22;;;1.20;100.00
56928;BME280;60850;52.502;13.426;2024-01-16T11:53:32;100193.34;;;1.12;100.00
56928;BME280;60850;52.502;13.426;2024-01-16T11:56:15;100197.69;;;1.03;100.00
56928;BME280;60850;52.502;13.426;2024-01-16T11:58:58;100193.34;;;1.08;100.00
56928;BME280;60850;52.502;13.426;2024-01-16T12:01:31;100193.31;;;1.04;100.00
56928;BME280;60850;52.502;13.426;2024-01-16T12:04:03;100187.19;;;1.05;100.00
56928;BME280;60850;52.502;13.426;2024-01-16T12:06:31;100180.25;;;1.16;100.00
56928;BME280;60850;52.502;13.426;2024-01-16T12:09:11;100182.88;;;1.21;100.00
56928;BME280;60850;52.502;13.426;2024-01-16T12:11:38;100176.78;;;1.43;100.00
56928;BME280;60850;52.502;13.426;2024-01-16T12:14:05;100172.44;;;1.48;100.00
56928;BME280;60850;52.502;13.426;2024-01-16T12:16:32;100175.03;;;1.53;100.00
56928;BME280;60850;52.502;13.426;2024-01-16T12:19:07;100173.28;;;1.47;100.00
56928;BME280;60850;52.502;13.426;2024-01-16T12:21:34;100163.66;;;1.45;100.00
56928;BME280;60850;52.502;13.426;2024-01-16T12:24:02;100166.31;;;1.49;100.00
56928;BME280;60850;52.502;13.426;2024-01-16T12:26:30;100168.03;;;1.43;100.00
56928;BME280;60850;52.502;13.426;2024-01-16T12:28:58;100156.63;;;1.30;100.00
56928;BME280;60850;52.502;13.426;2024-01-16T12:31:25;100156.63;;;1.31;100.00
56928;BME280;60850;52.502;13.426;2024-01-16T12:33:52;100148.75;;;1.30;100.00
56928;BME280;60850;52.502;13.426;2024-01-16T12:36:20;100142.63;;;1.16;100.00
56928;BME280;60850;52.502;13.426;2024-01-16T12:38:54;100140.84;;;1.12;100.00
56928;BME280;60850;52.502;13.426;2024-01-16T12:41:21;100138.22;;;1.08;100.00
56928;BME280;60850;52.502;13.426;2024-01-16T12:43:50;100145.22;;;1.09;100.00